createdAt,value
2023-02-08T00:03:14.812Z,-7.6
2023-02-08T00:08:52.071Z,-7.5
2023-02-08T00:14:28.577Z,-7.5
2023-02-08T00:20:06.428Z,-7.4
2023-02-08T00:25:45.679Z,-7.4
2023-02-08T00:31:24.217Z,-7.4
2023-02-08T00:36:46.102Z,-7.4
2023-02-08T00:42:23.850Z,-7.4
2023-02-08T00:48:02.116Z,-7.4
2023-02-08T00:53:39.120Z,-7.4
2023-02-08T00:59:15.922Z,-7.4
2023-02-08T01:05:08.126Z,-7.4
2023-02-08T01:10:46.180Z,-7.4
2023-02-08T01:16:07.463Z,-7.3
2023-02-08T01:21:29.019Z,-7.3
2023-02-08T01:26:51.697Z,-7.3
2023-02-08T01:32:13.776Z,-7.3
2023-02-08T01:37:35.615Z,-7.3
2023-02-08T01:42:57.991Z,-7.3
2023-02-08T01:48:35.823Z,-7.3
2023-02-08T01:54:12.259Z,-7.3
2023-02-08T01:59:49.688Z,-7.2
2023-02-08T02:05:27.393Z,-7.2
2023-02-08T02:11:03.779Z,-7.1
2023-02-08T02:16:41.254Z,-7.1
2023-02-08T02:22:21.187Z,-7.1
2023-02-08T02:27:58.062Z,-7.1
2023-02-08T02:33:35.949Z,-7
2023-02-08T02:39:12.819Z,-7
2023-02-08T02:44:48.974Z,-6.9
2023-02-08T02:50:26.387Z,-7
2023-02-08T02:55:47.860Z,-7
2023-02-08T03:01:24.603Z,-6.9
2023-02-08T03:06:32.349Z,-7
2023-02-08T03:12:09.455Z,-7
2023-02-08T03:17:44.883Z,-7
2023-02-08T03:23:21.884Z,-7
2023-02-08T03:34:05.540Z,-7.1
2023-02-08T03:39:43.328Z,-7.1
2023-02-08T03:45:20.356Z,-7.1
2023-02-08T03:50:57.677Z,-7.2
2023-02-08T03:56:34.110Z,-7.2
2023-02-08T04:01:56.043Z,-7.3
2023-02-08T04:07:17.630Z,-7.3
2023-02-08T04:12:54.395Z,-7.4
2023-02-08T04:18:31.043Z,-7.5
2023-02-08T04:24:07.430Z,-7.5
2023-02-08T04:29:45.000Z,-7.6
2023-02-08T04:35:23.002Z,-7.7
2023-02-08T04:41:00.351Z,-7.8
2023-02-08T04:46:37.715Z,-7.9
2023-02-08T04:52:16.271Z,-8.1
2023-02-08T04:57:54.105Z,-8.1
2023-02-08T05:03:31.561Z,-8.3
2023-02-08T05:09:08.991Z,-8.4
2023-02-08T05:14:47.858Z,-8.6
2023-02-08T05:20:25.925Z,-8.7
2023-02-08T05:26:04.237Z,-8.8
2023-02-08T05:31:43.349Z,-8.9
2023-02-08T05:37:20.572Z,-9.1
2023-02-08T05:42:57.901Z,-9.3
2023-02-08T05:48:38.265Z,-9.4
2023-02-08T05:59:22.112Z,-9.6
2023-02-08T06:04:59.534Z,-9.6
2023-02-08T06:15:44.295Z,-9.4
2023-02-08T06:21:24.682Z,-9.3
2023-02-08T06:27:00.754Z,-9
2023-02-08T06:32:39.072Z,-8.6
2023-02-08T06:38:19.870Z,-8.1
2023-02-08T06:43:57.478Z,-7.3
2023-02-08T06:49:44.510Z,-6.4
2023-02-08T06:55:21.324Z,-5.1
2023-02-08T07:00:58.242Z,-3.6
2023-02-08T07:06:43.664Z,-1.9
2023-02-08T07:12:19.872Z,0
2023-02-08T07:17:57.686Z,2.2
2023-02-08T07:23:19.337Z,4.5
2023-02-08T07:28:55.913Z,7.1
2023-02-08T07:34:35.861Z,9.9
2023-02-08T07:40:11.355Z,45.2
2023-02-08T07:45:48.608Z,35.3
2023-02-08T07:51:24.767Z,33
2023-02-08T07:57:03.592Z,31.4
2023-02-08T08:02:49.730Z,30.4
2023-02-08T08:08:29.591Z,29.8
2023-02-08T08:13:51.559Z,52.9
2023-02-08T08:19:30.962Z,51.4
2023-02-08T08:25:07.007Z,53.9
2023-02-08T08:30:46.145Z,55.3
2023-02-08T08:36:25.466Z,56.3
2023-02-08T08:42:03.538Z,57
2023-02-08T08:53:02.599Z,58.5
2023-02-08T08:58:39.149Z,59.1
2023-02-08T09:04:01.223Z,59.6
2023-02-08T09:09:38.574Z,60.1
2023-02-08T09:15:15.980Z,60.6
2023-02-08T09:20:55.265Z,60.8
2023-02-08T09:26:32.927Z,61.1
2023-02-08T09:31:56.499Z,60.8
2023-02-08T09:37:33.370Z,61.6
2023-02-08T09:42:55.403Z,60.4
2023-02-08T09:48:43.252Z,59.6
2023-02-08T09:54:19.824Z,59.1
2023-02-08T09:59:59.093Z,61.1
2023-02-08T10:05:21.959Z,61.6
2023-02-08T10:10:53.093Z,62.1
2023-02-08T10:16:44.190Z,62.7
2023-02-08T10:22:06.388Z,63.1
2023-02-08T10:27:28.457Z,63.4
2023-02-08T10:33:08.212Z,63.3
2023-02-08T10:39:03.024Z,63
2023-02-08T10:44:48.461Z,63.1
2023-02-08T10:50:47.795Z,60.4
2023-02-08T10:56:31.814Z,57.1
2023-02-08T11:02:03.733Z,57.6
2023-02-08T11:07:48.181Z,61.9
2023-02-08T11:13:31.557Z,62.9
2023-02-08T11:19:22.557Z,63
2023-02-08T11:25:05.963Z,63.2
2023-02-08T11:30:50.020Z,60.8
2023-02-08T11:36:33.617Z,59.9
2023-02-08T11:42:16.800Z,62.4
2023-02-08T11:48:00.153Z,62.8
2023-02-08T11:53:24.073Z,63.1
2023-02-08T11:59:00.649Z,63.2
2023-02-08T12:04:07.614Z,63.3
2023-02-08T12:09:30.021Z,62.9
2023-02-08T12:15:06.938Z,62.6
2023-02-08T12:21:03.205Z,62.9
2023-02-08T12:26:41.028Z,62.9
2023-02-08T12:32:36.273Z,62.2
2023-02-08T12:38:38.223Z,62.4
2023-02-08T12:44:25.654Z,62.1
2023-02-08T12:50:19.638Z,62.2
2023-02-08T12:55:42.235Z,58.1
2023-02-08T13:07:16.275Z,48.3
2023-02-08T13:13:03.969Z,46.2
2023-02-08T13:18:56.233Z,47.1
2023-02-08T13:25:06.764Z,49.4
2023-02-08T13:30:48.591Z,49.1
2023-02-08T13:36:36.325Z,45.8
2023-02-08T13:42:29.132Z,41.7
2023-02-08T13:48:22.409Z,37.7
2023-02-08T13:54:14.661Z,36.1
2023-02-08T13:59:20.808Z,34.3
2023-02-08T14:04:58.383Z,32.6
2023-02-08T14:10:35.238Z,30.6
2023-02-08T14:16:00.660Z,29.1
2023-02-08T14:21:39.484Z,27.7
2023-02-08T14:27:15.887Z,25.8
2023-02-08T14:32:52.868Z,23.9
2023-02-08T14:38:39.078Z,22.3
2023-02-08T14:49:41.719Z,19.8
2023-02-08T14:55:03.301Z,18.4
2023-02-08T15:00:24.826Z,17.1
2023-02-08T15:06:04.886Z,15.8
2023-02-08T15:11:47.086Z,14.4
2023-02-08T15:17:26.171Z,13.1
2023-02-08T15:23:06.802Z,11.8
2023-02-08T15:28:44.338Z,10.6
2023-02-08T15:34:32.170Z,9.4
2023-02-08T15:40:09.340Z,8.5
2023-02-08T15:45:47.478Z,7.6
2023-02-08T15:51:24.631Z,6.7
2023-02-08T15:56:57.200Z,5.9
2023-02-08T16:02:19.650Z,5.1
2023-02-08T16:07:57.512Z,4.4
2023-02-08T16:13:03.647Z,3.7
2023-02-08T16:19:01.261Z,2.9
2023-02-08T16:24:27.490Z,2.3
2023-02-08T16:30:05.149Z,1.7
2023-02-08T16:35:44.015Z,1.1
2023-02-08T16:41:21.514Z,0.6
2023-02-08T16:47:15.428Z,0
2023-02-08T16:53:05.288Z,-0.5
2023-02-08T17:04:10.675Z,-1.4
2023-02-08T17:09:50.314Z,-1.8
2023-02-08T17:21:17.419Z,-2.5
2023-02-08T17:26:57.228Z,-2.9
2023-02-08T17:32:20.703Z,-3.2
2023-02-08T17:37:58.578Z,-3.5
2023-02-08T17:43:35.378Z,-3.8
2023-02-08T17:48:57.578Z,-4.1
2023-02-08T17:54:36.817Z,-4.3
2023-02-08T18:00:03.958Z,-4.6
2023-02-08T18:05:42.316Z,-4.8
2023-02-08T18:11:21.036Z,-5
2023-02-08T18:16:58.985Z,-5.2
2023-02-08T18:22:36.755Z,-5.4
2023-02-08T18:27:59.187Z,-5.6
2023-02-08T18:33:37.962Z,-5.7
2023-02-08T18:39:18.582Z,-5.8
2023-02-08T18:44:56.541Z,-6
2023-02-08T18:50:34.296Z,-6.1
2023-02-08T18:56:29.634Z,-6.2
2023-02-08T19:01:52.918Z,-6.3
2023-02-08T19:07:30.753Z,-6.4
2023-02-08T19:13:08.852Z,-6.6
2023-02-08T19:18:46.942Z,-6.6
2023-02-08T19:24:24.271Z,-6.8
2023-02-08T19:29:46.066Z,-6.8
2023-02-08T19:35:24.516Z,-6.9
2023-02-08T19:41:02.466Z,-6.9
2023-02-08T19:46:40.709Z,-7.1
2023-02-08T19:52:37.356Z,-7.1
2023-02-08T19:57:43.543Z,-7.1
2023-02-08T20:03:38.081Z,-7.2
2023-02-08T20:09:15.708Z,-7.3
2023-02-08T20:15:05.070Z,-7.3
2023-02-08T20:20:46.070Z,-7.4
2023-02-08T20:26:30.705Z,-7.4
2023-02-08T20:32:09.166Z,-7.5
2023-02-08T20:38:02.617Z,-7.5
2023-02-08T20:43:40.266Z,-7.6
2023-02-08T20:49:25.814Z,-7.6
2023-02-08T20:55:11.278Z,-7.6
2023-02-08T21:00:57.830Z,-7.6
2023-02-08T21:06:20.316Z,-7.6
2023-02-08T21:11:58.158Z,-7.7
2023-02-08T21:17:38.674Z,-7.7
2023-02-08T21:23:17.735Z,-7.7
2023-02-08T21:28:55.836Z,-7.8
2023-02-08T21:34:36.085Z,-7.8
2023-02-08T21:40:13.127Z,-7.8
2023-02-08T21:45:51.149Z,-7.8
2023-02-08T21:51:12.958Z,-7.9
2023-02-08T21:56:52.350Z,-7.9
2023-02-08T22:02:30.213Z,-7.9
2023-02-08T22:07:51.379Z,-8
2023-02-08T22:13:32.609Z,-8.1
2023-02-08T22:19:10.184Z,-8.1
2023-02-08T22:24:47.100Z,-8.1
2023-02-08T22:30:25.594Z,-8.2
2023-02-08T22:35:48.788Z,-8.3
2023-02-08T22:41:25.954Z,-8.3
2023-02-08T22:47:03.109Z,-8.3
2023-02-08T22:52:40.514Z,-8.3
2023-02-08T22:58:17.651Z,-8.3
2023-02-08T23:03:54.591Z,-8.4
2023-02-08T23:09:31.896Z,-8.4
2023-02-08T23:15:09.021Z,-8.4
2023-02-08T23:20:47.372Z,-8.5
2023-02-08T23:26:26.621Z,-8.5
2023-02-08T23:32:03.969Z,-8.6
2023-02-08T23:37:25.099Z,-8.6
2023-02-08T23:43:03.159Z,-8.6
2023-02-08T23:48:25.573Z,-8.7
2023-02-08T23:54:02.772Z,-8.8
2023-02-08T23:59:41.000Z,-8.8
